createdAt,value
2023-01-26T00:00:33.047Z,13.93
2023-01-26T00:05:40.534Z,14.15
2023-01-26T00:10:50.963Z,14.75
2023-01-26T00:15:54.756Z,11.98
2023-01-26T00:21:00.525Z,15.30
2023-01-26T00:26:08.131Z,13.75
2023-01-26T00:31:20.794Z,15.48
2023-01-26T00:36:25.172Z,19.35
2023-01-26T00:41:47.872Z,11.77
2023-01-26T00:46:52.459Z,8.60
2023-01-26T00:51:56.408Z,12.27
2023-01-26T00:57:00.411Z,13.02
2023-01-26T01:02:04.807Z,10.20
2023-01-26T01:07:08.743Z,11.45
2023-01-26T01:12:13.909Z,11.95
2023-01-26T01:17:17.959Z,12.57
2023-01-26T01:22:22.300Z,12.07
2023-01-26T01:27:26.751Z,15.68
2023-01-26T01:32:30.757Z,9.13
2023-01-26T01:37:34.651Z,13.43
2023-01-26T01:42:38.698Z,12.20
2023-01-26T01:47:42.568Z,13.32
2023-01-26T01:52:47.426Z,11.55
2023-01-26T01:57:56.098Z,11.65
2023-01-26T02:03:12.075Z,11.80
2023-01-26T02:08:19.875Z,13.82
2023-01-26T02:13:25.711Z,11.60
2023-01-26T02:18:30.093Z,11.63
2023-01-26T02:24:13.061Z,11.88
2023-01-26T02:29:16.971Z,13.70
2023-01-26T02:34:21.131Z,9.32
2023-01-26T02:40:04.899Z,13.00
2023-01-26T02:45:17.228Z,8.68
2023-01-26T02:50:22.830Z,10.65
2023-01-26T02:55:26.951Z,10.60
2023-01-26T03:00:37.900Z,11.15
2023-01-26T03:05:42.663Z,10.93
2023-01-26T03:10:48.249Z,12.48
2023-01-26T03:15:55.245Z,12.32
2023-01-26T03:21:19.720Z,9.73
2023-01-26T03:26:42.062Z,12.63
2023-01-26T03:31:45.979Z,11.02
2023-01-26T03:36:52.104Z,11.63
2023-01-26T03:42:15.697Z,8.85
2023-01-26T03:47:38.342Z,7.63
2023-01-26T03:53:01.042Z,10.35
2023-01-26T03:58:04.925Z,9.63
2023-01-26T04:03:28.978Z,8.35
2023-01-26T04:08:32.797Z,8.90
2023-01-26T04:13:58.487Z,11.18
2023-01-26T04:19:25.378Z,13.43
2023-01-26T04:24:29.515Z,10.88
2023-01-26T04:29:34.334Z,11.73
2023-01-26T04:34:38.370Z,9.82
2023-01-26T04:39:49.556Z,9.77
2023-01-26T04:44:54.898Z,9.05
2023-01-26T04:49:59.833Z,12.07
2023-01-26T04:55:03.775Z,9.05
2023-01-26T05:00:11.484Z,11.68
2023-01-26T05:05:15.487Z,9.55
2023-01-26T05:10:19.940Z,14.25
2023-01-26T05:15:50.061Z,9.32
2023-01-26T05:21:17.320Z,8.10
2023-01-26T05:26:25.851Z,9.98
2023-01-26T05:31:33.805Z,9.77
2023-01-26T05:36:37.586Z,9.38
2023-01-26T05:41:41.595Z,10.60
2023-01-26T05:46:54.857Z,10.23
2023-01-26T05:51:59.933Z,8.35
2023-01-26T05:57:06.023Z,9.13
2023-01-26T06:07:21.839Z,8.55
2023-01-26T06:12:40.783Z,8.23
2023-01-26T06:17:54.599Z,9.98
2023-01-26T06:23:02.376Z,9.02
2023-01-26T06:28:09.512Z,8.15
2023-01-26T06:33:13.547Z,8.63
2023-01-26T06:38:17.503Z,8.23
2023-01-26T06:43:22.601Z,10.55
2023-01-26T06:48:29.048Z,6.70
2023-01-26T06:53:42.628Z,6.20
2023-01-26T06:58:53.917Z,7.13
2023-01-26T07:04:28.609Z,9.70
2023-01-26T07:09:32.588Z,7.75
2023-01-26T07:14:36.703Z,7.03
2023-01-26T07:19:40.788Z,9.93
2023-01-26T07:24:44.611Z,8.13
2023-01-26T07:29:49.645Z,9.77
2023-01-26T07:34:53.350Z,8.52
2023-01-26T07:39:57.676Z,7.65
2023-01-26T07:45:05.303Z,7.35
2023-01-26T07:50:11.186Z,10.93
2023-01-26T07:55:15.805Z,11.40
2023-01-26T08:00:20.726Z,8.95
2023-01-26T08:05:24.464Z,7.68
2023-01-26T08:10:32.425Z,9.50
2023-01-26T08:15:36.262Z,8.63
2023-01-26T08:20:41.050Z,8.50
2023-01-26T08:25:44.947Z,7.95
2023-01-26T08:30:49.147Z,9.40
2023-01-26T08:35:52.936Z,6.97
2023-01-26T08:40:58.540Z,7.55
2023-01-26T08:46:04.774Z,8.05
2023-01-26T08:51:09.388Z,8.48
2023-01-26T08:56:14.468Z,7.80
2023-01-26T09:01:18.648Z,10.35
2023-01-26T09:06:22.722Z,10.90
2023-01-26T09:11:26.645Z,8.30
2023-01-26T09:16:30.698Z,10.55
2023-01-26T09:21:34.619Z,8.10
2023-01-26T09:26:38.920Z,7.75
2023-01-26T09:31:43.156Z,10.25
2023-01-26T09:36:47.100Z,7.15
2023-01-26T09:41:57.533Z,6.47
2023-01-26T09:47:11.124Z,8.55
2023-01-26T09:52:29.235Z,7.45
2023-01-26T09:57:50.143Z,7.00
2023-01-26T10:03:11.797Z,8.20
2023-01-26T10:08:19.527Z,9.68
2023-01-26T10:13:24.153Z,6.97
2023-01-26T10:18:35.407Z,10.75
2023-01-26T10:23:48.833Z,8.25
2023-01-26T10:28:54.011Z,6.63
2023-01-26T10:34:11.620Z,9.63
2023-01-26T10:39:18.759Z,8.00
2023-01-26T10:44:33.707Z,7.05
2023-01-26T10:49:37.614Z,7.40
2023-01-26T10:54:44.506Z,8.00
2023-01-26T10:59:58.868Z,8.02
2023-01-26T11:05:16.614Z,9.68
2023-01-26T11:10:28.536Z,8.15
2023-01-26T11:15:40.988Z,7.13
2023-01-26T11:20:53.750Z,7.60
2023-01-26T11:26:25.474Z,8.93
2023-01-26T11:31:56.047Z,9.05
2023-01-26T11:37:05.059Z,9.32
2023-01-26T11:42:58.664Z,8.43
2023-01-26T11:48:20.529Z,11.68
2023-01-26T11:53:47.359Z,13.60
2023-01-26T11:59:22.471Z,5.80
2023-01-26T12:04:28.633Z,9.38
2023-01-26T12:09:44.258Z,12.43
2023-01-26T12:14:52.119Z,8.93
2023-01-26T12:20:08.977Z,12.65
2023-01-26T12:25:29.480Z,9.65
2023-01-26T12:30:42.651Z,11.63
2023-01-26T12:35:59.098Z,9.18
2023-01-26T12:41:40.475Z,10.45
2023-01-26T12:46:51.746Z,8.95
2023-01-26T12:52:08.503Z,10.85
2023-01-26T12:57:25.831Z,13.18
2023-01-26T13:02:34.893Z,11.32
2023-01-26T13:07:41.156Z,11.10
2023-01-26T13:13:21.093Z,9.75
2023-01-26T13:18:50.526Z,10.90
2023-01-26T13:23:54.490Z,10.23
2023-01-26T13:29:32.629Z,10.70
2023-01-26T13:40:06.495Z,10.55
2023-01-26T13:45:43.853Z,8.80
2023-01-26T13:50:52.813Z,9.43
2023-01-26T13:56:00.752Z,12.52
2023-01-26T14:01:06.661Z,8.05
2023-01-26T14:06:16.667Z,10.75
2023-01-26T14:11:24.439Z,10.48
2023-01-26T14:16:38.619Z,11.18
2023-01-26T14:21:50.555Z,13.15
2023-01-26T14:26:54.578Z,8.95
2023-01-26T14:32:00.730Z,9.48
2023-01-26T14:37:16.206Z,10.45
2023-01-26T14:42:21.592Z,11.32
2023-01-26T14:47:33.637Z,9.65
2023-01-26T14:52:45.930Z,10.50
2023-01-26T14:57:49.950Z,12.07
2023-01-26T15:02:56.826Z,11.52
2023-01-26T15:08:03.374Z,8.98
2023-01-26T15:13:16.659Z,11.57
2023-01-26T15:18:21.859Z,12.35
2023-01-26T15:23:30.367Z,7.28
2023-01-26T15:28:35.351Z,9.40
2023-01-26T15:33:52.294Z,13.07
2023-01-26T15:39:14.050Z,10.70
2023-01-26T15:44:20.842Z,8.88
2023-01-26T15:49:24.704Z,11.55
2023-01-26T15:54:28.779Z,10.90
2023-01-26T15:59:32.523Z,10.02
2023-01-26T16:04:36.425Z,9.15
2023-01-26T16:09:41.762Z,10.75
2023-01-26T16:14:46.095Z,10.52
2023-01-26T16:19:49.937Z,11.07
2023-01-26T16:24:53.741Z,7.75
2023-01-26T16:29:57.627Z,8.20
2023-01-26T16:35:01.600Z,8.52
2023-01-26T16:40:07.798Z,7.57
2023-01-26T16:45:21.933Z,11.35
2023-01-26T16:50:27.443Z,9.70
2023-01-26T16:55:31.368Z,8.02
2023-01-26T17:00:35.225Z,6.13
2023-01-26T17:05:40.032Z,7.63
2023-01-26T17:10:59.855Z,6.20
2023-01-26T17:16:06.636Z,8.25
2023-01-26T17:21:10.581Z,9.23
2023-01-26T17:26:17.689Z,8.00
2023-01-26T17:31:23.257Z,9.75
2023-01-26T17:36:27.035Z,9.50
2023-01-26T17:41:31.023Z,9.05
2023-01-26T17:46:34.758Z,8.68
2023-01-26T17:51:41.292Z,8.90
2023-01-26T17:56:45.033Z,6.78
2023-01-26T18:01:49.120Z,12.63
2023-01-26T18:06:52.917Z,10.60
2023-01-26T18:11:56.887Z,5.63
2023-01-26T18:17:01.108Z,7.18
2023-01-26T18:22:04.936Z,6.93
2023-01-26T18:27:09.097Z,9.68
2023-01-26T18:32:13.257Z,13.32
2023-01-26T18:37:16.946Z,15.43
2023-01-26T18:42:20.986Z,11.43
2023-01-26T18:47:24.750Z,8.95
2023-01-26T18:52:30.776Z,16.35
2023-01-26T18:57:35.442Z,10.18
2023-01-26T19:02:39.381Z,12.20
2023-01-26T19:07:43.316Z,9.98
2023-01-26T19:12:50.323Z,8.88
2023-01-26T19:17:54.323Z,16.33
2023-01-26T19:22:59.178Z,12.02
2023-01-26T19:28:03.308Z,10.52
2023-01-26T19:33:25.581Z,13.40
2023-01-26T19:38:30.808Z,14.32
2023-01-26T19:43:34.985Z,7.05
2023-01-26T19:48:38.955Z,14.50
2023-01-26T19:53:45.880Z,9.38
2023-01-26T19:58:55.090Z,17.15
2023-01-26T20:04:01.289Z,19.13
2023-01-26T20:09:07.337Z,17.42
2023-01-26T20:14:12.107Z,15.10
2023-01-26T20:19:16.096Z,18.38
2023-01-26T20:24:20.784Z,12.80
2023-01-26T20:29:25.627Z,13.52
2023-01-26T20:34:29.668Z,19.00
2023-01-26T20:39:33.441Z,15.77
2023-01-26T20:44:40.237Z,16.08
2023-01-26T20:49:45.411Z,18.13
2023-01-26T20:54:49.411Z,19.23
2023-01-26T20:59:53.236Z,21.42
2023-01-26T21:04:57.138Z,16.10
2023-01-26T21:10:01.186Z,20.23
2023-01-26T21:15:08.459Z,16.75
2023-01-26T21:20:14.449Z,16.00
2023-01-26T21:25:18.461Z,15.13
2023-01-26T21:30:22.469Z,17.23
2023-01-26T21:35:26.255Z,19.02
2023-01-26T21:40:30.190Z,17.17
2023-01-26T21:45:54.040Z,16.30
2023-01-26T21:51:18.100Z,20.25
2023-01-26T21:56:21.939Z,17.77
2023-01-26T22:01:26.121Z,14.57
2023-01-26T22:06:30.742Z,16.08
2023-01-26T22:11:34.698Z,15.27
2023-01-26T22:16:39.257Z,19.55
2023-01-26T22:21:43.642Z,14.15
2023-01-26T22:26:48.248Z,19.25
2023-01-26T22:31:53.745Z,15.10
2023-01-26T22:36:57.651Z,16.83
2023-01-26T22:42:01.587Z,11.65
2023-01-26T22:47:05.421Z,18.42
2023-01-26T22:52:09.359Z,15.70
2023-01-26T22:57:13.214Z,14.10
2023-01-26T23:02:16.925Z,15.13
2023-01-26T23:07:20.770Z,13.30
2023-01-26T23:12:24.492Z,16.30
2023-01-26T23:17:28.860Z,12.93
2023-01-26T23:22:33.003Z,17.15
2023-01-26T23:27:36.865Z,20.75
2023-01-26T23:32:40.698Z,17.42
2023-01-26T23:37:44.458Z,17.13
2023-01-26T23:43:06.691Z,12.35
2023-01-26T23:48:12.656Z,13.60
2023-01-26T23:53:16.415Z,16.25
2023-01-26T23:58:20.774Z,15.75
